Herman, Kentucky
Current Conditions -  °F | °C
As of 8:52 PM on Saturday 22 Nov 2014 (Local Time) from KCKV Reporting Station
Clear Clear  
Wind Chill: 57°   Ceiling: Unl
Heat Index: 57°   Visibility: 10mi
Dew Point: 39°   Wind: 10mph
Humidity: 51%   Direction: 170°S
Pressure: 30.07"   Gusts: NA
Location:  36.705°N, 87.1786°W
Report Text: KCKV 230252Z AUTO 17009KT 10SM CLR 14/04 A3007 RMK AO2 SLP179 60000 T01390039 58007 $
Loading
Personal Weather Stations






























Interactive Weather Map New forecast layout! Learn more

10-Day Weather Forecast

Advertisements
Track Severe Weather on mobile